Time;durP1;ratioP1;P1;durP2;ratioP2;P2;SDS_P1;SDS_P2;PMS_P1;PMS_P2;Temp;Humidity;BMP_temperature;BMP_pressure;BME280_temperature;BME280_humidity;BME280_pressure;Samples;Min_cycle;Max_cycle;Signal;HPM_P1;HPM_P2
2022/04/12 00:01:08;;;;;;;1.95;1.42;;;17.20;57.30;;;;;;10457211;28;20476;-56
2022/04/12 00:06:09;;;;;;;2.47;1.33;;;17.10;57.40;;;;;;10457959;28;20025;-54
2022/04/12 00:11:10;;;;;;;1.27;1.05;;;17.10;57.60;;;;;;10457458;28;20060;-54
2022/04/12 00:16:11;;;;;;;2.03;1.20;;;17.10;57.50;;;;;;10457409;28;20083;-55
2022/04/12 00:21:12;;;;;;;2.38;1.10;;;17.10;57.50;;;;;;10456570;28;20052;-52
2022/04/12 00:26:13;;;;;;;2.60;1.30;;;17.10;57.60;;;;;;10457260;28;20115;-53
2022/04/12 00:31:14;;;;;;;2.13;1.00;;;17.00;57.80;;;;;;10457224;28;20033;-52
2022/04/12 00:36:15;;;;;;;1.92;1.25;;;17.00;58.00;;;;;;10466050;28;20029;-54
2022/04/12 00:41:15;;;;;;;2.63;1.55;;;16.90;58.10;;;;;;10456807;28;20032;-55
2022/04/12 00:46:16;;;;;;;3.22;1.60;;;16.90;58.00;;;;;;10456388;28;20064;-55
2022/04/12 00:51:17;;;;;;;2.40;1.20;;;17.00;57.70;;;;;;10456461;28;20079;-53
2022/04/12 00:56:18;;;;;;;2.70;1.25;;;17.10;57.50;;;;;;10456137;28;20036;-55
2022/04/12 01:01:19;;;;;;;2.65;1.50;;;17.10;57.20;;;;;;10455982;28;20574;-55
2022/04/12 01:06:19;;;;;;;2.83;1.15;;;17.10;57.20;;;;;;10455633;28;20142;-54
2022/04/12 01:11:20;;;;;;;1.80;1.10;;;17.10;57.10;;;;;;10454504;28;20033;-54
2022/04/12 01:16:21;;;;;;;2.10;1.67;;;17.30;56.80;;;;;;10467242;28;20397;-56
2022/04/12 01:21:22;;;;;;;1.88;1.00;;;17.30;56.80;;;;;;10455117;28;20041;-54
2022/04/12 01:26:23;;;;;;;1.80;0.98;;;17.20;56.90;;;;;;10453069;28;20044;-52
2022/04/12 01:31:25;;;;;;;1.42;1.15;;;17.10;57.10;;;;;;10454990;28;20120;-53
2022/04/12 01:36:26;;;;;;;1.67;1.30;;;17.10;57.30;;;;;;10457589;28;20492;-53
2022/04/12 01:41:26;;;;;;;1.63;0.98;;;17.00;57.50;;;;;;10453203;28;20053;-55
2022/04/12 01:46:27;;;;;;;1.77;1.42;;;17.10;57.20;;;;;;10454347;28;20532;-55
2022/04/12 01:51:28;;;;;;;3.20;1.85;;;17.20;56.90;;;;;;10453007;28;20025;-53
2022/04/12 01:56:31;;;;;;;1.77;1.15;;;17.30;56.60;;;;;;10454108;28;20083;-54
2022/04/12 02:01:31;;;;;;;1.83;1.10;;;17.30;56.60;;;;;;10453278;28;20033;-55
2022/04/12 02:06:32;;;;;;;2.20;1.20;;;17.20;56.70;;;;;;10461240;28;20463;-54
2022/04/12 02:11:33;;;;;;;1.42;1.10;;;17.20;56.90;;;;;;10453985;28;20028;-54
2022/04/12 02:16:34;;;;;;;1.92;1.00;;;17.20;56.70;;;;;;10453909;28;20068;-54
2022/04/12 02:21:35;;;;;;;1.55;1.00;;;17.30;56.60;;;;;;10453662;28;20037;-53
2022/04/12 02:26:36;;;;;;;1.58;1.23;;;17.30;56.60;;;;;;10452430;28;20369;-55
2022/04/12 02:31:36;;;;;;;1.83;1.02;;;17.20;56.80;;;;;;10453557;28;20048;-53
2022/04/12 02:36:37;;;;;;;1.85;1.05;;;17.20;56.80;;;;;;10466455;28;20068;-55
2022/04/12 02:41:38;;;;;;;3.03;1.48;;;17.30;56.60;;;;;;10461350;28;20043;-53
2022/04/12 02:46:39;;;;;;;2.35;1.27;;;17.30;56.40;;;;;;10461289;28;20065;-54
2022/04/12 02:51:40;;;;;;;1.40;1.00;;;17.20;57.30;;;;;;10461133;28;20044;-55
2022/04/12 02:56:40;;;;;;;2.65;1.77;;;17.20;56.70;;;;;;10460742;28;20021;-54
2022/04/12 03:01:41;;;;;;;1.67;1.10;;;17.20;56.50;;;;;;10460621;28;20064;-53
2022/04/12 03:06:42;;;;;;;2.05;1.20;;;17.30;56.50;;;;;;10460332;28;20061;-54
2022/04/12 03:11:42;;;;;;;2.28;1.00;;;17.20;56.50;;;;;;10458905;28;20059;-54
2022/04/12 03:16:43;;;;;;;1.73;0.95;;;17.20;56.50;;;;;;10460235;28;20497;-52
2022/04/12 03:21:44;;;;;;;1.25;0.75;;;17.20;56.70;;;;;;10458796;28;20028;-56
2022/04/12 03:26:45;;;;;;;2.55;1.42;;;17.20;56.80;;;;;;10459470;28;20115;-54
2022/04/12 03:31:45;;;;;;;0.90;0.70;;;17.10;57.00;;;;;;10459118;28;20061;-55
2022/04/12 03:36:46;;;;;;;1.52;1.00;;;17.00;57.20;;;;;;10469895;28;20048;-54
2022/04/12 03:41:48;;;;;;;1.35;1.00;;;17.00;57.40;;;;;;10459226;28;20118;-52
2022/04/12 03:46:49;;;;;;;2.13;1.30;;;16.90;57.60;;;;;;10456741;28;20052;-53
2022/04/12 03:51:49;;;;;;;1.58;1.10;;;17.00;56.70;;;;;;10458262;28;20131;-54
2022/04/12 03:56:50;;;;;;;1.67;1.25;;;17.10;56.80;;;;;;10458724;28;20633;-55
2022/04/12 04:01:51;;;;;;;1.63;1.50;;;17.20;56.70;;;;;;10458512;28;20056;-55
2022/04/12 04:06:51;;;;;;;2.00;1.48;;;17.20;56.30;;;;;;10458213;28;20039;-53
2022/04/12 04:11:52;;;;;;;1.27;0.82;;;17.30;56.40;;;;;;10457719;28;20493;-54
2022/04/12 04:16:53;;;;;;;1.52;1.13;;;17.20;56.40;;;;;;10458061;28;20064;-53
2022/04/12 04:21:55;;;;;;;1.30;1.00;;;17.20;56.60;;;;;;10455855;28;20496;-55
2022/04/12 04:26:56;;;;;;;2.25;1.38;;;17.10;56.70;;;;;;10457463;28;20060;-55
2022/04/12 04:31:57;;;;;;;1.33;0.90;;;17.10;56.80;;;;;;10456759;28;20106;-54
2022/04/12 04:36:57;;;;;;;1.40;1.02;;;17.20;56.60;;;;;;10465995;28;20104;-54
2022/04/12 04:41:58;;;;;;;1.95;1.05;;;17.20;56.50;;;;;;10456268;28;20067;-54
2022/04/12 04:46:59;;;;;;;3.63;0.90;;;17.10;56.70;;;;;;10455481;28;20071;-53
2022/04/12 04:51:59;;;;;;;7.15;1.30;;;17.10;57.00;;;;;;10453105;28;20071;-49
2022/04/12 04:57:00;;;;;;;3.55;1.40;;;17.10;57.30;;;;;;10455012;28;20033;-53
2022/04/12 05:02:01;;;;;;;5.28;1.60;;;17.20;57.30;;;;;;10455371;28;20119;-52
2022/04/12 05:07:01;;;;;;;7.97;1.50;;;17.20;58.10;;;;;;10456058;28;20067;-55
2022/04/12 05:12:02;;;;;;;3.95;1.15;;;17.30;58.20;;;;;;10456048;28;20514;-50
2022/04/12 05:17:03;;;;;;;5.53;1.20;;;17.30;58.70;;;;;;10456558;28;20056;-49
2022/04/12 05:22:04;;;;;;;7.53;1.55;;;17.50;58.80;;;;;;10454705;28;20040;-48
2022/04/12 05:27:05;;;;;;;5.03;1.52;;;17.40;59.10;;;;;;10454177;28;20060;-56
2022/04/12 05:32:06;;;;;;;9.77;2.10;;;17.30;59.80;;;;;;10453069;28;20524;-53
2022/04/12 05:37:07;;;;;;;11.07;2.67;;;17.10;59.70;;;;;;10454224;28;20055;-49
2022/04/12 05:42:08;;;;;;;11.65;2.47;;;17.20;60.20;;;;;;10454674;28;20033;-50
2022/04/12 05:47:12;;;;;;;11.68;2.58;;;17.10;60.20;;;;;;10454765;28;20060;-51
2022/04/12 05:52:13;;;;;;;8.60;2.10;;;17.20;59.80;;;;;;10454099;28;20025;-48
2022/04/12 05:57:14;;;;;;;10.43;1.98;;;17.10;59.70;;;;;;10453851;28;20037;-48
2022/04/12 06:02:14;;;;;;;6.13;2.33;;;16.90;59.60;;;;;;10451376;28;20529;-48
2022/04/12 06:07:15;;;;;;;6.15;1.58;;;16.90;60.10;;;;;;10452885;28;20072;-48
2022/04/12 06:12:16;;;;;;;7.07;1.98;;;16.90;59.30;;;;;;10458454;28;20040;-48
2022/04/12 06:17:17;;;;;;;8.88;2.22;;;16.80;59.40;;;;;;10447799;28;20065;-47
2022/04/12 06:22:17;;;;;;;9.13;2.38;;;16.80;59.60;;;;;;10462023;28;20469;-47
2022/04/12 06:27:27;;;;;;;7.85;2.20;;;16.80;59.20;;;;;;10461745;28;20083;-48
2022/04/12 06:32:28;;;;;;;3.35;2.17;;;16.80;58.80;;;;;;10461885;28;20029;-47
2022/04/12 06:37:29;;;;;;;6.72;2.30;;;16.90;58.70;;;;;;10465228;28;20388;-47
2022/04/12 06:42:30;;;;;;;5.05;3.03;;;16.80;58.70;;;;;;10456788;28;20060;-51
2022/04/12 06:47:32;;;;;;;4.95;2.10;;;16.80;58.80;;;;;;10449464;28;20037;-50
2022/04/12 06:52:33;;;;;;;7.50;2.15;;;16.80;58.80;;;;;;10458694;28;20063;-49
2022/04/12 06:57:34;;;;;;;7.93;2.15;;;16.90;58.50;;;;;;10458473;28;20021;-47
2022/04/12 07:02:36;;;;;;;6.60;1.92;;;16.90;58.10;;;;;;10457253;28;20094;-48
2022/04/12 07:07:38;;;;;;;4.57;2.22;;;16.90;58.00;;;;;;10458615;28;20055;-49
2022/04/12 07:12:40;;;;;;;8.65;3.08;;;16.90;58.10;;;;;;10455441;28;20039;-48
2022/04/12 07:17:41;;;;;;;4.43;2.10;;;16.90;58.20;;;;;;10473865;28;20032;-51
2022/04/12 07:22:41;;;;;;;7.43;2.17;;;16.90;58.70;;;;;;10456504;28;20033;-49
2022/04/12 07:27:42;;;;;;;8.40;1.80;;;16.90;58.40;;;;;;10458460;28;20150;-47
2022/04/12 07:32:43;;;;;;;4.28;2.00;;;16.80;58.50;;;;;;10458093;28;20060;-51
2022/04/12 07:37:43;;;;;;;9.07;2.60;;;16.80;58.30;;;;;;10469240;28;20580;-50
2022/04/12 07:42:44;;;;;;;4.80;1.65;;;16.80;58.20;;;;;;10448968;28;20120;-48
2022/04/12 07:47:44;;;;;;;4.55;1.90;;;16.80;58.10;;;;;;10457282;28;20441;-48
2022/04/12 07:52:45;;;;;;;4.32;1.65;;;16.80;58.30;;;;;;10458109;28;20056;-47
2022/04/12 07:57:46;;;;;;;5.50;2.15;;;16.80;58.80;;;;;;10458059;28;20445;-47
2022/04/12 08:02:46;;;;;;;6.32;1.92;;;16.80;58.80;;;;;;10456606;28;20072;-48
2022/04/12 08:07:47;;;;;;;6.13;2.38;;;16.80;58.70;;;;;;10457909;28;20056;-52
2022/04/12 08:12:48;;;;;;;3.63;2.30;;;16.80;58.50;;;;;;10456990;28;20270;-48
2022/04/12 08:17:49;;;;;;;5.90;2.50;;;16.80;58.30;;;;;;10456861;28;20342;-50
2022/04/12 08:22:52;;;;;;;6.63;2.13;;;16.80;58.30;;;;;;10471214;28;20071;-48
2022/04/12 08:27:52;;;;;;;7.78;2.42;;;16.90;58.20;;;;;;10455612;28;20041;-47
2022/04/12 08:32:53;;;;;;;8.23;2.67;;;16.90;58.30;;;;;;10456564;28;20032;-49
2022/04/12 08:37:54;;;;;;;7.22;2.60;;;16.90;58.30;;;;;;10459742;28;20067;-48
2022/04/12 08:42:56;;;;;;;4.97;2.03;;;16.90;58.30;;;;;;10456599;28;20099;-49
2022/04/12 08:47:58;;;;;;;6.50;1.95;;;16.90;58.40;;;;;;10448073;28;20033;-49
2022/04/12 08:53:00;;;;;;;7.13;2.13;;;16.90;58.30;;;;;;10453906;28;20033;-52
2022/04/12 08:58:01;;;;;;;4.10;1.85;;;16.90;58.50;;;;;;10453924;28;20028;-48
2022/04/12 09:03:03;;;;;;;4.45;2.08;;;16.90;58.50;;;;;;10453823;28;20082;-48
2022/04/12 09:08:21;;;;;;;3.55;1.83;;;16.90;58.50;;;;;;10455442;28;20025;-49
2022/04/12 09:13:22;;;;;;;4.05;1.98;;;16.90;58.50;;;;;;10454652;28;20126;-47
2022/04/12 09:18:44;;;;;;;2.95;1.60;;;17.00;58.60;;;;;;10455450;28;20053;-49
2022/04/12 09:23:49;;;;;;;3.95;2.00;;;17.00;58.60;;;;;;10455512;28;20511;-48
2022/04/12 09:28:52;;;;;;;5.72;1.85;;;17.00;58.60;;;;;;10455447;28;20049;-47
2022/04/12 09:33:55;;;;;;;3.53;1.80;;;17.00;58.50;;;;;;10456214;28;20134;-49
2022/04/12 09:38:58;;;;;;;2.33;1.65;;;17.00;58.50;;;;;;10471739;28;20074;-48
2022/04/12 09:44:07;;;;;;;2.88;1.60;;;17.10;58.50;;;;;;10454237;28;20071;-47
2022/04/12 09:49:08;;;;;;;4.53;2.47;;;17.10;58.60;;;;;;10454133;28;20485;-47
2022/04/12 09:54:20;;;;;;;2.50;1.60;;;17.10;58.50;;;;;;10454186;28;20037;-47
2022/04/12 09:59:21;;;;;;;3.00;1.92;;;17.20;59.10;;;;;;10453094;28;20029;-49
2022/04/12 10:04:22;;;;;;;4.75;2.08;;;17.20;58.50;;;;;;10454156;28;20060;-48
2022/04/12 10:09:27;;;;;;;2.97;1.95;;;17.20;58.40;;;;;;10453842;28;20068;-48
2022/04/12 10:14:29;;;;;;;2.42;1.40;;;17.30;58.40;;;;;;10453759;28;20052;-48
2022/04/12 10:19:31;;;;;;;7.00;2.00;;;17.30;58.30;;;;;;10453422;28;20040;-47
2022/04/12 10:24:33;;;;;;;3.05;1.63;;;17.30;58.30;;;;;;10453971;28;20040;-48
2022/04/12 10:29:35;;;;;;;3.85;1.50;;;17.40;58.30;;;;;;10452257;28;20060;-47
2022/04/12 10:34:55;;;;;;;3.35;1.40;;;17.30;58.20;;;;;;10453467;28;20083;-47
2022/04/12 10:40:03;;;;;;;2.78;1.80;;;17.40;58.20;;;;;;10453537;28;20027;-47
2022/04/12 10:45:05;;;;;;;3.42;1.50;;;17.40;58.20;;;;;;10467344;28;20082;-48
2022/04/12 10:50:13;;;;;;;3.00;1.90;;;17.50;58.20;;;;;;10452187;28;20029;-49
2022/04/12 10:55:22;;;;;;;3.20;1.40;;;17.60;58.10;;;;;;10451946;28;20033;-51
2022/04/12 11:00:23;;;;;;;3.07;1.63;;;17.60;58.70;;;;;;10458168;28;20488;-50
2022/04/12 11:05:35;;;;;;;5.07;1.85;;;17.60;58.70;;;;;;10458926;28;20020;-47
2022/04/12 11:10:36;;;;;;;2.75;1.88;;;17.60;59.20;;;;;;10460352;28;20110;-48
2022/04/12 11:15:39;;;;;;;3.10;1.45;;;17.70;59.30;;;;;;10459042;28;20048;-48
2022/04/12 11:20:48;;;;;;;3.95;1.98;;;17.60;59.40;;;;;;10440867;28;20033;-48
2022/04/12 11:25:51;;;;;;;3.05;1.73;;;17.50;59.70;;;;;;10461197;28;20029;-48
2022/04/12 11:30:59;;;;;;;2.25;1.50;;;17.50;60.10;;;;;;10474196;28;20045;-48
2022/04/12 11:36:00;;;;;;;2.33;1.52;;;17.50;60.10;;;;;;10462386;28;20052;-50
2022/04/12 11:41:01;;;;;;;3.05;1.50;;;17.60;60.30;;;;;;10458739;28;20031;-50
2022/04/12 11:46:02;;;;;;;2.03;1.50;;;17.70;60.40;;;;;;10458081;28;20025;-50
2022/04/12 11:51:05;;;;;;;4.95;2.13;;;17.70;60.40;;;;;;10457469;28;20037;-48
2022/04/12 11:56:06;;;;;;;6.80;1.95;;;17.70;60.50;;;;;;10457704;28;20029;-48
2022/04/12 12:01:08;;;;;;;3.00;1.65;;;17.80;60.50;;;;;;10440650;28;20120;-47
2022/04/12 12:06:09;;;;;;;3.25;1.65;;;17.80;60.40;;;;;;10457215;28;20032;-47
2022/04/12 12:11:12;;;;;;;2.92;1.63;;;17.80;60.40;;;;;;10456355;28;20072;-47
2022/04/12 12:16:15;;;;;;;3.60;1.80;;;17.80;60.30;;;;;;10456420;28;20024;-47
2022/04/12 12:21:19;;;;;;;5.32;2.08;;;17.80;60.30;;;;;;10456143;28;20037;-46
2022/04/12 12:26:29;;;;;;;5.18;2.28;;;17.70;60.40;;;;;;10455954;28;20043;-52
2022/04/12 12:31:42;;;;;;;12.35;2.70;;;17.60;60.40;;;;;;10456328;28;20041;-47
2022/04/12 12:36:49;;;;;;;6.15;2.25;;;17.70;61.20;;;;;;10459602;28;20033;-47
2022/04/12 12:41:56;;;;;;;6.82;2.13;;;17.70;60.20;;;;;;10456541;28;20427;-46
2022/04/12 12:46:59;;;;;;;8.05;2.40;;;17.70;60.00;;;;;;10455989;28;20035;-47
2022/04/12 12:52:07;;;;;;;10.95;2.30;;;17.80;59.60;;;;;;10455967;28;20025;-46
2022/04/12 12:57:09;;;;;;;6.38;2.40;;;17.80;59.50;;;;;;10455526;28;20048;-46
2022/04/12 13:02:12;;;;;;;5.88;2.45;;;17.80;59.60;;;;;;10453615;28;20625;-50
2022/04/12 13:07:14;;;;;;;8.65;2.20;;;17.70;59.70;;;;;;10462334;28;20143;-51
2022/04/12 13:12:17;;;;;;;8.80;3.17;;;17.80;59.60;;;;;;10454498;28;20048;-46
2022/04/12 13:17:18;;;;;;;6.30;2.30;;;17.80;59.50;;;;;;10452694;28;20033;-48
2022/04/12 13:22:19;;;;;;;6.00;2.22;;;17.80;59.40;;;;;;10454095;28;20109;-47
2022/04/12 13:27:20;;;;;;;16.05;3.33;;;17.90;59.30;;;;;;10455008;28;20057;-48
2022/04/12 13:32:21;;;;;;;10.68;3.63;;;17.90;59.10;;;;;;10454722;28;20098;-48
2022/04/12 13:37:22;;;;;;;12.38;2.97;;;17.90;59.10;;;;;;10457137;28;20049;-48
2022/04/12 13:42:23;;;;;;;14.55;3.58;;;17.90;59.20;;;;;;10454694;28;20410;-50
2022/04/12 13:47:23;;;;;;;18.63;4.07;;;17.90;59.40;;;;;;10454961;28;20423;-48
2022/04/12 13:52:24;;;;;;;9.40;3.20;;;17.90;59.10;;;;;;10453106;28;20112;-48
2022/04/12 13:57:25;;;;;;;10.35;3.40;;;17.90;59.10;;;;;;10454368;28;20032;-48
2022/04/12 14:02:27;;;;;;;9.60;3.05;;;17.90;59.30;;;;;;10452285;28;20045;-49
2022/04/12 14:07:27;;;;;;;10.07;3.53;;;17.90;59.90;;;;;;10452795;28;20561;-51
2022/04/12 14:12:28;;;;;;;9.60;2.85;;;18.00;59.30;;;;;;10453660;28;20033;-48
2022/04/12 14:17:29;;;;;;;10.25;2.83;;;18.00;59.30;;;;;;10452206;28;20060;-52
2022/04/12 14:22:29;;;;;;;10.02;2.40;;;17.90;59.40;;;;;;10451506;28;20102;-48
2022/04/12 14:27:30;;;;;;;10.15;2.85;;;17.90;59.60;;;;;;10452342;28;20077;-50
2022/04/12 14:32:31;;;;;;;4.97;2.20;;;17.90;59.60;;;;;;10456626;28;20616;-48
2022/04/12 14:37:31;;;;;;;5.35;1.70;;;17.90;59.60;;;;;;10465790;28;20096;-48
2022/04/12 14:42:32;;;;;;;5.28;2.97;;;17.90;59.60;;;;;;10461653;28;20029;-48
2022/04/12 14:47:33;;;;;;;10.80;2.95;;;17.90;59.70;;;;;;10461493;28;20037;-50
2022/04/12 14:52:33;;;;;;;5.03;2.33;;;17.90;59.80;;;;;;10461060;28;20112;-49
2022/04/12 14:57:35;;;;;;;6.40;2.15;;;17.90;59.90;;;;;;10461107;28;20078;-48
2022/04/12 15:02:36;;;;;;;5.43;2.55;;;17.90;59.80;;;;;;10461268;28;20032;-48
2022/04/12 15:07:37;;;;;;;5.25;2.35;;;17.90;59.80;;;;;;10459354;28;20056;-48
2022/04/12 15:12:38;;;;;;;4.30;2.03;;;17.90;59.70;;;;;;10459107;28;20068;-53
2022/04/12 15:17:40;;;;;;;5.43;2.28;;;18.00;59.80;;;;;;10459983;28;20412;-51
2022/04/12 15:22:41;;;;;;;8.77;2.35;;;18.00;59.80;;;;;;10458998;28;20024;-48
2022/04/12 15:27:44;;;;;;;6.07;2.28;;;18.00;59.80;;;;;;10458541;28;20060;-50
2022/04/12 15:32:45;;;;;;;3.38;1.67;;;18.00;59.80;;;;;;10459262;28;20446;-48
2022/04/12 15:37:48;;;;;;;4.78;1.67;;;17.90;59.80;;;;;;10461736;28;20106;-47
2022/04/12 15:42:49;;;;;;;4.75;1.83;;;17.90;59.90;;;;;;10457862;28;20040;-48
2022/04/12 15:47:51;;;;;;;4.20;1.55;;;17.90;60.00;;;;;;10456531;28;20059;-53
2022/04/12 15:52:51;;;;;;;3.80;1.75;;;17.90;59.80;;;;;;10473095;28;20470;-48
2022/04/12 15:57:52;;;;;;;3.97;1.90;;;17.90;59.20;;;;;;10457527;28;20039;-51
2022/04/12 16:02:53;;;;;;;8.45;2.55;;;18.00;58.90;;;;;;10457288;28;20062;-48
2022/04/12 16:07:55;;;;;;;12.05;4.45;;;18.00;58.60;;;;;;10462218;28;20048;-46
2022/04/12 16:12:57;;;;;;;12.88;4.47;;;17.90;60.30;;;;;;10457517;28;20481;-49
2022/04/12 16:17:57;;;;;;;24.05;6.28;;;18.00;59.00;;;;;;10457868;28;20033;-48
2022/04/12 16:22:58;;;;;;;25.50;5.22;;;18.00;62.30;;;;;;10457660;28;20374;-47
2022/04/12 16:27:59;;;;;;;24.25;5.55;;;18.20;63.00;;;;;;10457304;28;20075;-50
2022/04/12 16:33:00;;;;;;;22.05;4.72;;;18.30;62.90;;;;;;10457486;28;20025;-48
2022/04/12 16:38:05;;;;;;;37.28;6.97;;;18.30;62.40;;;;;;10461029;28;20442;-50
2022/04/12 16:43:09;;;;;;;25.80;6.45;;;18.30;62.90;;;;;;10452409;28;20117;-53
2022/04/12 16:48:09;;;;;;;23.25;5.72;;;18.20;63.10;;;;;;10456880;28;20473;-51
2022/04/12 16:53:10;;;;;;;23.27;5.80;;;18.20;62.80;;;;;;10455809;28;20033;-51
2022/04/12 16:58:12;;;;;;;24.38;7.25;;;18.10;62.30;;;;;;10455942;28;20021;-53
2022/04/12 17:03:13;;;;;;;36.00;6.88;;;18.10;62.30;;;;;;10455156;28;20032;-49
2022/04/12 17:08:14;;;;;;;30.58;6.88;;;18.10;62.30;;;;;;10453681;28;20056;-49
2022/04/12 17:13:15;;;;;;;35.35;6.47;;;18.10;62.20;;;;;;10455516;28;20029;-49
2022/04/12 17:18:16;;;;;;;29.67;7.80;;;18.00;62.50;;;;;;10455764;28;20384;-48
2022/04/12 17:23:17;;;;;;;23.65;6.05;;;18.00;62.90;;;;;;10454734;28;20032;-47
2022/04/12 17:28:18;;;;;;;28.70;5.28;;;18.00;62.90;;;;;;10454225;28;20527;-52
2022/04/12 17:33:19;;;;;;;16.65;5.50;;;17.90;62.50;;;;;;10463879;28;20140;-49
2022/04/12 17:38:20;;;;;;;12.85;5.30;;;17.90;62.20;;;;;;10465701;28;20032;-47
2022/04/12 17:43:21;;;;;;;12.23;4.25;;;17.90;62.10;;;;;;10462166;28;20057;-51
2022/04/12 17:48:22;;;;;;;14.35;4.40;;;17.80;63.10;;;;;;10473664;28;20492;-48
2022/04/12 17:53:23;;;;;;;7.90;3.67;;;17.80;61.80;;;;;;10472344;28;20445;-49
2022/04/12 17:58:27;;;;;;;14.15;4.40;;;17.80;61.50;;;;;;10486394;28;20051;-51
2022/04/12 18:03:30;;;;;;;15.50;3.90;;;17.80;61.80;;;;;;10463921;28;20039;-49
2022/04/12 18:08:32;;;;;;;11.70;4.10;;;17.80;62.00;;;;;;10453115;28;20448;-49
2022/04/12 18:13:33;;;;;;;9.68;3.33;;;17.70;62.10;;;;;;10453677;28;20045;-53
2022/04/12 18:18:34;;;;;;;12.02;3.80;;;17.70;62.30;;;;;;10465673;28;20025;-50
2022/04/12 18:23:35;;;;;;;7.10;3.00;;;17.70;62.30;;;;;;10453789;28;20506;-52
2022/04/12 18:28:35;;;;;;;9.05;3.22;;;17.70;62.30;;;;;;10453297;28;20550;-47
2022/04/12 18:33:36;;;;;;;8.18;3.50;;;17.70;62.30;;;;;;10454247;28;20068;-48
2022/04/12 18:38:37;;;;;;;13.77;4.43;;;17.70;62.20;;;;;;10452774;28;20033;-49
2022/04/12 18:43:38;;;;;;;14.18;4.05;;;17.70;62.30;;;;;;10452366;28;20061;-46
2022/04/12 18:48:38;;;;;;;11.70;3.72;;;17.70;62.50;;;;;;10470030;28;20037;-48
2022/04/12 18:53:39;;;;;;;10.50;3.42;;;17.70;62.40;;;;;;10472757;28;20082;-49
2022/04/12 18:58:40;;;;;;;12.80;3.25;;;17.70;63.30;;;;;;10472388;28;20061;-47
2022/04/12 19:03:41;;;;;;;12.27;3.50;;;17.70;62.60;;;;;;10471054;28;20126;-49
2022/04/12 19:08:42;;;;;;;9.63;3.20;;;17.70;62.70;;;;;;10470083;28;20043;-48
2022/04/12 19:13:42;;;;;;;17.20;3.95;;;17.70;62.80;;;;;;10472888;28;20035;-49
2022/04/12 19:18:43;;;;;;;8.70;3.90;;;17.80;63.30;;;;;;10461633;28;20067;-48
2022/04/12 19:23:44;;;;;;;11.57;4.38;;;17.80;63.30;;;;;;10475442;28;20067;-48
2022/04/12 19:28:45;;;;;;;8.02;3.38;;;17.80;63.30;;;;;;10477721;28;20416;-51
2022/04/12 19:33:45;;;;;;;7.88;3.35;;;17.80;63.40;;;;;;10468424;28;20159;-49
2022/04/12 19:38:46;;;;;;;9.30;3.03;;;17.80;63.40;;;;;;10460708;28;20025;-50
2022/04/12 19:43:47;;;;;;;10.43;4.25;;;17.80;63.50;;;;;;10462945;28;20104;-52
2022/04/12 19:48:48;;;;;;;8.10;3.55;;;17.80;63.40;;;;;;10460799;28;20047;-49
2022/04/12 19:53:49;;;;;;;6.47;2.75;;;17.80;63.00;;;;;;10478234;28;20040;-51
2022/04/12 19:58:50;;;;;;;6.88;3.30;;;17.70;62.90;;;;;;10457106;28;20021;-52
2022/04/12 20:03:50;;;;;;;8.48;3.60;;;17.70;63.00;;;;;;10457348;28;20045;-49
2022/04/12 20:08:51;;;;;;;7.03;3.70;;;17.70;63.00;;;;;;10456733;28;20109;-50
2022/04/12 20:13:52;;;;;;;7.43;3.03;;;17.70;62.90;;;;;;10456068;28;20495;-50
2022/04/12 20:18:52;;;;;;;6.50;2.90;;;17.70;62.90;;;;;;10455951;28;20116;-51
2022/04/12 20:23:54;;;;;;;4.88;2.53;;;17.70;62.80;;;;;;10455808;28;20089;-50
2022/04/12 20:28:54;;;;;;;8.32;3.42;;;17.70;63.40;;;;;;10456948;28;20060;-50
2022/04/12 20:33:55;;;;;;;5.28;2.80;;;17.70;62.70;;;;;;10458962;28;20076;-53
2022/04/12 20:38:56;;;;;;;5.65;2.88;;;17.70;62.70;;;;;;10459607;28;20055;-49
2022/04/12 20:43:57;;;;;;;5.18;2.80;;;17.70;62.70;;;;;;10457324;28;20477;-49
2022/04/12 20:48:58;;;;;;;8.25;3.13;;;17.70;62.70;;;;;;10456954;28;20090;-53
2022/04/12 20:53:59;;;;;;;7.55;3.28;;;17.60;62.60;;;;;;10456949;28;20110;-51
2022/04/12 20:58:59;;;;;;;4.45;3.00;;;17.60;62.60;;;;;;10455465;28;20071;-49
2022/04/12 21:04:00;;;;;;;5.00;2.42;;;17.60;62.60;;;;;;10456158;28;20051;-51
2022/04/12 21:09:02;;;;;;;6.35;3.70;;;17.70;62.70;;;;;;10454842;28;20039;-50
2022/04/12 21:14:02;;;;;;;5.07;2.95;;;17.60;62.60;;;;;;10455723;28;20059;-49
2022/04/12 21:19:03;;;;;;;5.20;2.45;;;17.60;62.60;;;;;;10471472;28;20163;-49
2022/04/12 21:24:04;;;;;;;6.43;2.47;;;17.60;62.50;;;;;;10455829;28;20118;-50
2022/04/12 21:29:05;;;;;;;4.45;2.80;;;17.60;62.50;;;;;;10455040;28;20048;-50
2022/04/12 21:34:06;;;;;;;5.65;2.50;;;17.60;62.50;;;;;;10458450;28;20032;-49
2022/04/12 21:39:06;;;;;;;6.40;2.85;;;17.70;62.50;;;;;;10455663;28;20091;-52
2022/04/12 21:44:07;;;;;;;4.88;2.35;;;17.60;62.50;;;;;;10455133;28;20033;-50
2022/04/12 21:49:08;;;;;;;4.78;2.65;;;17.60;62.40;;;;;;10454628;28;20036;-52
2022/04/12 21:54:09;;;;;;;5.43;2.75;;;17.60;62.40;;;;;;10454661;28;20130;-49
2022/04/12 21:59:10;;;;;;;5.75;3.05;;;17.60;62.40;;;;;;10454510;28;20109;-49
2022/04/12 22:04:10;;;;;;;5.28;3.22;;;17.60;62.40;;;;;;10454276;28;20071;-51
2022/04/12 22:09:11;;;;;;;5.55;2.83;;;17.60;62.40;;;;;;10454495;28;20107;-50
2022/04/12 22:14:13;;;;;;;5.05;3.10;;;17.60;62.40;;;;;;10454347;28;20060;-51
2022/04/12 22:19:13;;;;;;;5.82;2.83;;;17.60;62.40;;;;;;10454086;28;20063;-48
2022/04/12 22:24:14;;;;;;;6.53;3.05;;;17.60;62.40;;;;;;10454237;28;20186;-48
2022/04/12 22:29:15;;;;;;;4.90;3.15;;;17.60;62.30;;;;;;10453442;28;20493;-48
2022/04/12 22:34:15;;;;;;;3.95;2.53;;;17.60;62.30;;;;;;10457570;28;20504;-48
2022/04/12 22:39:16;;;;;;;6.05;2.75;;;17.60;62.40;;;;;;10453809;28;20050;-51
2022/04/12 22:44:18;;;;;;;6.80;2.92;;;17.60;62.30;;;;;;10453595;28;20053;-49
2022/04/12 22:49:18;;;;;;;4.32;2.50;;;17.50;62.30;;;;;;10453407;28;20443;-49
2022/04/12 22:54:20;;;;;;;3.85;2.20;;;17.60;62.20;;;;;;10458682;28;20116;-49
2022/04/12 22:59:20;;;;;;;5.55;2.83;;;17.50;62.10;;;;;;10459875;28;20031;-51
2022/04/12 23:04:21;;;;;;;5.35;2.63;;;17.60;62.00;;;;;;10476486;28;20541;-48
2022/04/12 23:09:21;;;;;;;5.20;3.53;;;17.50;62.10;;;;;;10460758;28;20036;-49
2022/04/12 23:14:22;;;;;;;3.92;2.50;;;17.60;62.10;;;;;;10460997;28;20480;-49
2022/04/12 23:19:24;;;;;;;8.98;3.17;;;17.60;62.10;;;;;;10460108;28;20064;-48
2022/04/12 23:24:25;;;;;;;4.47;2.85;;;17.50;62.00;;;;;;10460364;28;20515;-49
2022/04/12 23:29:26;;;;;;;3.97;2.65;;;17.50;62.10;;;;;;10459883;28;20123;-51
2022/04/12 23:34:26;;;;;;;3.15;2.30;;;17.50;61.90;;;;;;10462750;28;20025;-49
2022/04/12 23:39:27;;;;;;;5.63;3.00;;;17.50;61.90;;;;;;10459943;28;20036;-49
2022/04/12 23:44:28;;;;;;;4.55;2.72;;;17.50;61.90;;;;;;10459658;28;20049;-50
2022/04/12 23:49:29;;;;;;;4.85;2.78;;;17.50;61.90;;;;;;10459336;28;20039;-49
2022/04/12 23:54:30;;;;;;;3.60;2.45;;;17.50;61.90;;;;;;10459266;28;20504;-50
2022/04/12 23:59:30;;;;;;;5.70;2.60;;;17.50;61.90;;;;;;10457620;28;20064;-52
